Time;durP1;ratioP1;P1;durP2;ratioP2;P2;SDS_P1;SDS_P2;PMS_P1;PMS_P2;Temp;Humidity;BMP_temperature;BMP_pressure;BME280_temperature;BME280_humidity;BME280_pressure;Samples;Min_cycle;Max_cycle;Signal;HPM_P1;HPM_P2
2023/07/23 00:02:21;;;;;;;0.67;0.67;;;;;16.80;95855.00;;;;5072264;28;20215;-56
2023/07/23 00:04:49;;;;;;;1.03;1.03;;;;;16.70;95855.00;;;;5072200;28;20651;-56
2023/07/23 00:07:16;;;;;;;1.53;1.43;;;;;16.70;95856.00;;;;5072230;28;20196;-56
2023/07/23 00:09:45;;;;;;;0.83;0.83;;;;;16.70;95855.00;;;;5072391;28;20662;-56
2023/07/23 00:12:12;;;;;;;0.50;0.50;;;;;16.70;95858.00;;;;5072481;28;20207;-56
2023/07/23 00:14:40;;;;;;;1.43;1.37;;;;;16.70;95851.00;;;;5072795;28;20215;-56
2023/07/23 00:17:08;;;;;;;0.60;0.60;;;;;16.80;95850.00;;;;5072246;28;20235;-56
2023/07/23 00:19:35;;;;;;;1.03;0.93;;;;;16.90;95849.00;;;;5075511;28;20698;-56
2023/07/23 00:22:02;;;;;;;0.60;0.60;;;;;16.80;95844.00;;;;5075956;28;20223;-56
2023/07/23 00:24:30;;;;;;;2.10;1.63;;;;;16.70;95848.00;;;;5075712;28;20218;-56
2023/07/23 00:26:58;;;;;;;0.70;0.70;;;;;16.70;95850.00;;;;5076051;28;20249;-56
2023/07/23 00:29:26;;;;;;;0.67;0.67;;;;;16.60;95841.00;;;;5075420;28;20200;-56
2023/07/23 00:31:54;;;;;;;3.33;0.77;;;;;16.60;95840.00;;;;5075297;28;20219;-56
2023/07/23 00:34:22;;;;;;;0.90;0.90;;;;;16.60;95840.00;;;;5075266;28;20215;-56
2023/07/23 00:36:49;;;;;;;1.33;1.23;;;;;16.60;95836.00;;;;5075270;28;20195;-56
2023/07/23 00:39:17;;;;;;;0.63;0.63;;;;;16.60;95846.00;;;;5075303;28;20278;-56
2023/07/23 00:41:44;;;;;;;0.60;0.60;;;;;16.60;95838.00;;;;5075268;28;20216;-57
2023/07/23 00:44:13;;;;;;;0.67;0.67;;;;;16.50;95840.00;;;;5075411;28;20662;-56
2023/07/23 00:46:40;;;;;;;0.70;0.70;;;;;16.50;95832.00;;;;5075124;28;20196;-57
2023/07/23 00:49:07;;;;;;;0.70;0.70;;;;;16.40;95831.00;;;;5075224;28;20199;-59
2023/07/23 00:51:35;;;;;;;1.63;1.53;;;;;16.40;95829.00;;;;5075147;28;20219;-56
2023/07/23 00:54:03;;;;;;;2.00;1.90;;;;;16.40;95834.00;;;;5074908;28;20215;-56
2023/07/23 00:56:31;;;;;;;1.00;1.00;;;;;16.40;95830.00;;;;5075134;28;20191;-56
2023/07/23 00:58:59;;;;;;;1.20;1.00;;;;;16.40;95827.00;;;;5075092;28;20195;-56
2023/07/23 01:01:30;;;;;;;0.60;0.60;;;;;16.30;95824.00;;;;5075028;28;20576;-56
2023/07/23 01:03:57;;;;;;;0.87;0.87;;;;;16.30;95822.00;;;;5075361;28;20286;-57
2023/07/23 01:06:27;;;;;;;1.10;1.07;;;;;16.30;95816.00;;;;5075272;28;20210;-57
2023/07/23 01:08:56;;;;;;;0.60;0.60;;;;;16.30;95818.00;;;;5075017;28;20537;-57
2023/07/23 01:11:24;;;;;;;0.60;0.60;;;;;16.20;95811.00;;;;5075019;28;20243;-57
2023/07/23 01:13:52;;;;;;;0.73;0.73;;;;;16.20;95814.00;;;;5074533;28;20226;-56
2023/07/23 01:16:20;;;;;;;0.80;0.80;;;;;16.20;95808.00;;;;5075045;28;20199;-56
2023/07/23 01:18:50;;;;;;;1.13;1.03;;;;;16.20;95813.00;;;;5074421;28;20663;-56
2023/07/23 01:21:18;;;;;;;0.53;0.53;;;;;16.10;95806.00;;;;5074529;28;20261;-56
2023/07/23 01:23:46;;;;;;;0.60;0.60;;;;;16.10;95808.00;;;;5074443;28;20658;-56
2023/07/23 01:26:14;;;;;;;0.70;0.70;;;;;16.10;95808.00;;;;5074370;28;20269;-56
2023/07/23 01:28:42;;;;;;;0.63;0.63;;;;;16.10;95804.00;;;;5074299;28;20588;-56
2023/07/23 01:31:12;;;;;;;0.70;0.70;;;;;16.10;95790.00;;;;5074176;28;20309;-56
2023/07/23 01:33:40;;;;;;;0.70;0.70;;;;;16.00;95797.00;;;;5074397;28;20184;-56
2023/07/23 01:36:07;;;;;;;0.80;0.80;;;;;16.00;95796.00;;;;5074469;28;20187;-56
2023/07/23 01:38:35;;;;;;;0.77;0.77;;;;;16.10;95796.00;;;;5074188;28;20196;-56
2023/07/23 01:41:04;;;;;;;0.80;0.80;;;;;16.00;95795.00;;;;5074288;28;20191;-56
2023/07/23 01:43:32;;;;;;;0.80;0.80;;;;;16.00;95794.00;;;;5074034;28;20187;-57
2023/07/23 01:45:59;;;;;;;0.77;0.77;;;;;16.10;95795.00;;;;5074509;28;20245;-57
2023/07/23 01:48:27;;;;;;;4.80;0.93;;;;;15.90;95796.00;;;;5074394;28;20534;-57
2023/07/23 01:50:54;;;;;;;0.73;0.73;;;;;15.90;95793.00;;;;5074076;28;20583;-56
2023/07/23 01:53:22;;;;;;;0.83;0.83;;;;;15.90;95786.00;;;;5074114;28;20253;-56
2023/07/23 01:55:49;;;;;;;2.27;1.93;;;;;15.90;95788.00;;;;5074447;28;20214;-56
2023/07/23 01:58:18;;;;;;;0.90;0.90;;;;;15.70;95794.00;;;;5073717;28;20206;-60
2023/07/23 02:00:45;;;;;;;1.00;1.00;;;;;15.70;95789.00;;;;5073603;28;20199;-56
2023/07/23 02:03:12;;;;;;;0.60;0.60;;;;;15.70;95783.00;;;;5073797;28;20191;-56
2023/07/23 02:05:40;;;;;;;0.67;0.67;;;;;15.80;95784.00;;;;5073634;28;20199;-56
2023/07/23 02:08:07;;;;;;;1.37;1.03;;;;;15.70;95782.00;;;;5073525;28;20199;-57
2023/07/23 02:10:35;;;;;;;0.50;0.50;;;;;15.80;95780.00;;;;5073762;28;20223;-57
2023/07/23 02:13:02;;;;;;;1.33;1.23;;;;;15.80;95782.00;;;;5074124;28;20207;-57
2023/07/23 02:15:31;;;;;;;1.37;1.27;;;;;15.80;95785.00;;;;5073563;28;20226;-56
2023/07/23 02:17:58;;;;;;;0.60;0.60;;;;;15.60;95785.00;;;;5073392;28;20249;-56
2023/07/23 02:20:25;;;;;;;1.57;1.47;;;;;15.70;95781.00;;;;5073335;28;20536;-56
2023/07/23 02:22:53;;;;;;;0.80;0.80;;;;;15.70;95783.00;;;;5055380;28;20716;-56
2023/07/23 02:25:20;;;;;;;1.13;1.03;;;;;15.50;95789.00;;;;5073525;28;20535;-56
2023/07/23 02:27:47;;;;;;;1.03;1.03;;;;;15.50;95786.00;;;;5073299;28;20197;-56
2023/07/23 02:30:15;;;;;;;0.80;0.80;;;;;15.50;95792.00;;;;5073156;28;20278;-56
2023/07/23 02:32:43;;;;;;;1.13;1.03;;;;;15.50;95784.00;;;;5073195;28;20690;-56
2023/07/23 02:35:11;;;;;;;1.03;1.03;;;;;15.50;95794.00;;;;5073036;28;20310;-56
2023/07/23 02:37:38;;;;;;;0.50;0.50;;;;;15.70;95796.00;;;;5073332;28;20582;-56
2023/07/23 02:40:07;;;;;;;1.20;1.00;;;;;15.70;95797.00;;;;5072409;28;20199;-56
2023/07/23 02:42:35;;;;;;;0.60;0.60;;;;;15.40;95792.00;;;;5072943;28;20211;-56
2023/07/23 02:45:03;;;;;;;0.87;0.87;;;;;15.20;95796.00;;;;5072979;28;20241;-56
2023/07/23 02:47:31;;;;;;;1.10;1.10;;;;;15.20;95792.00;;;;5072977;28;20198;-56
2023/07/23 02:49:59;;;;;;;0.83;0.83;;;;;15.20;95797.00;;;;5073204;28;20203;-56
2023/07/23 02:52:27;;;;;;;0.53;0.53;;;;;15.20;95787.00;;;;5073109;28;20221;-56
2023/07/23 02:54:54;;;;;;;0.93;0.93;;;;;15.40;95789.00;;;;5072800;28;20215;-56
2023/07/23 02:57:21;;;;;;;0.63;0.63;;;;;15.10;95790.00;;;;5072894;28;20722;-56
2023/07/23 02:59:49;;;;;;;0.70;0.70;;;;;15.00;95790.00;;;;5072861;28;20681;-56
2023/07/23 03:02:16;;;;;;;1.17;1.17;;;;;14.90;95794.00;;;;5072974;28;20242;-56
2023/07/23 03:04:44;;;;;;;1.03;1.03;;;;;14.80;95787.00;;;;5072811;28;20233;-56
2023/07/23 03:07:12;;;;;;;0.90;0.90;;;;;15.00;95803.00;;;;5072996;28;20554;-56
2023/07/23 03:09:40;;;;;;;0.70;0.70;;;;;15.00;95790.00;;;;5072702;28;20188;-56
2023/07/23 03:12:09;;;;;;;0.60;0.60;;;;;15.00;95794.00;;;;5072680;28;20211;-56
2023/07/23 03:14:37;;;;;;;0.90;0.90;;;;;15.10;95795.00;;;;5072560;28;20281;-56
2023/07/23 03:17:04;;;;;;;1.83;1.73;;;;;15.10;95788.00;;;;5073164;28;20195;-56
2023/07/23 03:19:32;;;;;;;0.67;0.67;;;;;15.10;95796.00;;;;5072544;28;20192;-56
2023/07/23 03:21:59;;;;;;;9.27;0.93;;;;;15.00;95792.00;;;;5072444;28;20236;-56
2023/07/23 03:24:28;;;;;;;0.70;0.70;;;;;14.90;95795.00;;;;5072531;28;20191;-56
2023/07/23 03:26:55;;;;;;;0.80;0.80;;;;;14.90;95796.00;;;;5072983;28;20287;-56
2023/07/23 03:29:23;;;;;;;0.80;0.80;;;;;15.10;95792.00;;;;5072551;28;20214;-56
2023/07/23 03:31:50;;;;;;;0.60;0.60;;;;;14.80;95806.00;;;;5072536;28;20720;-56
2023/07/23 03:34:18;;;;;;;0.73;0.73;;;;;14.80;95794.00;;;;5072665;28;20199;-56
2023/07/23 03:36:45;;;;;;;0.63;0.63;;;;;14.60;95790.00;;;;5072578;28;20191;-56
2023/07/23 03:39:16;;;;;;;1.10;1.10;;;;;14.70;95793.00;;;;5072612;28;20607;-56
2023/07/23 03:41:45;;;;;;;0.90;0.90;;;;;14.70;95783.00;;;;5072756;28;20250;-56
2023/07/23 03:44:13;;;;;;;0.50;0.50;;;;;14.50;95788.00;;;;5072819;28;20192;-57
2023/07/23 03:46:45;;;;;;;0.90;0.90;;;;;14.50;95789.00;;;;5072753;28;20199;-56
2023/07/23 03:49:12;;;;;;;0.50;0.50;;;;;14.60;95793.00;;;;5072853;28;20195;-56
2023/07/23 03:51:40;;;;;;;0.93;0.93;;;;;14.50;95788.00;;;;5073432;28;20230;-56
2023/07/23 03:54:07;;;;;;;0.50;0.50;;;;;14.50;95792.00;;;;5076171;28;20666;-57
2023/07/23 03:56:34;;;;;;;0.60;0.60;;;;;14.60;95791.00;;;;5076074;28;20219;-57
2023/07/23 03:59:04;;;;;;;1.17;1.10;;;;;14.60;95789.00;;;;5076213;28;20654;-57
2023/07/23 04:01:31;;;;;;;0.70;0.70;;;;;14.50;95795.00;;;;5075876;28;20235;-57
2023/07/23 04:03:59;;;;;;;0.90;0.90;;;;;14.40;95793.00;;;;5076212;28;20308;-57
2023/07/23 04:06:27;;;;;;;0.90;0.90;;;;;14.40;95794.00;;;;5076048;28;20179;-57
2023/07/23 04:08:55;;;;;;;1.23;1.17;;;;;14.30;95793.00;;;;5075828;28;20195;-57
2023/07/23 04:11:22;;;;;;;0.63;0.63;;;;;14.40;95794.00;;;;5075781;28;20218;-55
2023/07/23 04:13:50;;;;;;;0.80;0.80;;;;;14.40;95793.00;;;;5076190;28;20249;-54
2023/07/23 04:16:19;;;;;;;2.27;0.73;;;;;14.30;95793.00;;;;5075795;28;20222;-55
2023/07/23 04:18:47;;;;;;;0.57;0.57;;;;;14.30;95794.00;;;;5076225;28;20200;-55
2023/07/23 04:21:14;;;;;;;0.80;0.80;;;;;14.40;95788.00;;;;5075778;28;20208;-55
2023/07/23 04:23:45;;;;;;;0.50;0.50;;;;;14.40;95805.00;;;;5075505;28;20195;-57
2023/07/23 04:26:13;;;;;;;0.70;0.70;;;;;14.60;95799.00;;;;5076059;28;20538;-57
2023/07/23 04:28:40;;;;;;;2.63;1.00;;;;;14.80;95801.00;;;;5057518;28;20671;-57
2023/07/23 04:31:07;;;;;;;0.97;0.97;;;;;14.90;95799.00;;;;5075471;28;20293;-57
2023/07/23 04:33:36;;;;;;;0.60;0.60;;;;;15.00;95803.00;;;;5076718;28;20263;-57
2023/07/23 04:36:07;;;;;;;1.27;1.27;;;;;15.10;95805.00;;;;5057233;28;20222;-57
2023/07/23 04:38:34;;;;;;;0.50;0.50;;;;;15.20;95799.00;;;;5075699;28;20177;-57
2023/07/23 04:41:02;;;;;;;0.77;0.77;;;;;15.10;95799.00;;;;5075217;28;20244;-57
2023/07/23 04:43:29;;;;;;;0.73;0.73;;;;;15.20;95810.00;;;;5075210;28;20275;-57
2023/07/23 04:45:57;;;;;;;0.83;0.83;;;;;15.10;95805.00;;;;5075148;28;20179;-58
2023/07/23 04:48:25;;;;;;;0.97;0.97;;;;;15.20;95799.00;;;;5075059;28;20195;-63
2023/07/23 04:50:58;;;;;;;0.60;0.60;;;;;15.40;95821.00;;;;5075212;28;20222;-58
2023/07/23 04:53:26;;;;;;;0.67;0.67;;;;;15.30;95811.00;;;;5075277;28;20188;-57
2023/07/23 04:55:54;;;;;;;0.70;0.70;;;;;15.40;95812.00;;;;5075135;28;20681;-57
2023/07/23 04:58:22;;;;;;;1.60;1.50;;;;;15.30;95814.00;;;;5074843;28;20199;-57
2023/07/23 05:00:49;;;;;;;0.87;0.87;;;;;15.30;95810.00;;;;5075053;28;20202;-57
2023/07/23 05:03:17;;;;;;;0.67;0.67;;;;;15.50;95815.00;;;;5074414;28;20570;-57
2023/07/23 05:05:46;;;;;;;1.00;1.00;;;;;15.70;95814.00;;;;5074819;28;20184;-57
2023/07/23 05:08:15;;;;;;;0.70;0.70;;;;;15.70;95811.00;;;;5074777;28;20202;-57
2023/07/23 05:10:42;;;;;;;0.70;0.70;;;;;15.90;95815.00;;;;5074890;28;20203;-57
2023/07/23 05:13:09;;;;;;;1.00;1.00;;;;;16.00;95809.00;;;;5074503;28;20210;-57
2023/07/23 05:15:37;;;;;;;1.10;1.10;;;;;16.10;95802.00;;;;5056500;28;20215;-57
2023/07/23 05:18:04;;;;;;;0.40;0.40;;;;;16.20;95808.00;;;;5074955;28;20561;-58
2023/07/23 05:20:32;;;;;;;1.33;1.23;;;;;16.40;95805.00;;;;5056594;28;20201;-58
2023/07/23 05:22:59;;;;;;;1.70;1.33;;;;;16.40;95799.00;;;;5074401;28;20578;-58
2023/07/23 05:25:27;;;;;;;0.90;0.90;;;;;16.60;95805.00;;;;5074387;28;20191;-58
2023/07/23 05:27:54;;;;;;;0.83;0.83;;;;;16.70;95805.00;;;;5074295;28;20221;-58
2023/07/23 05:30:22;;;;;;;1.13;1.13;;;;;16.90;95806.00;;;;5074329;28;20199;-57
2023/07/23 05:32:49;;;;;;;0.80;0.80;;;;;17.00;95798.00;;;;5074418;28;20211;-57
2023/07/23 05:35:16;;;;;;;0.77;0.77;;;;;17.10;95802.00;;;;5074090;28;20581;-58
2023/07/23 05:37:44;;;;;;;0.77;0.77;;;;;17.20;95801.00;;;;5056181;28;20198;-57
2023/07/23 05:40:12;;;;;;;0.40;0.40;;;;;17.30;95809.00;;;;5073937;28;20196;-58
2023/07/23 05:42:40;;;;;;;1.03;0.93;;;;;17.50;95813.00;;;;5073965;28;20227;-58
2023/07/23 05:45:09;;;;;;;0.50;0.50;;;;;17.80;95805.00;;;;5074030;28;20196;-58
2023/07/23 05:47:37;;;;;;;0.50;0.50;;;;;17.90;95803.00;;;;5073932;28;20214;-58
2023/07/23 05:50:05;;;;;;;0.90;0.90;;;;;18.00;95808.00;;;;5073770;28;20195;-58
2023/07/23 05:52:32;;;;;;;0.90;0.90;;;;;18.10;95797.00;;;;5073749;28;20226;-58
2023/07/23 05:55:00;;;;;;;0.73;0.73;;;;;18.30;95800.00;;;;5073653;28;20191;-57
2023/07/23 05:57:27;;;;;;;1.43;1.33;;;;;18.30;95798.00;;;;5073884;28;20192;-58
2023/07/23 05:59:56;;;;;;;2.67;1.23;;;;;18.40;95802.00;;;;5073649;28;20187;-58
2023/07/23 06:02:23;;;;;;;0.70;0.70;;;;;18.40;95807.00;;;;5073738;28;20753;-57
2023/07/23 06:04:50;;;;;;;0.93;0.93;;;;;18.50;95794.00;;;;5074072;28;20217;-57
2023/07/23 06:07:18;;;;;;;1.07;0.87;;;;;18.70;95797.00;;;;5073535;28;20203;-57
2023/07/23 06:09:45;;;;;;;1.33;1.27;;;;;18.80;95802.00;;;;5073545;28;20253;-57
2023/07/23 06:12:13;;;;;;;4.17;0.83;;;;;18.80;95808.00;;;;5073316;28;20207;-57
2023/07/23 06:14:40;;;;;;;1.27;1.27;;;;;19.00;95811.00;;;;5072843;28;20205;-56
2023/07/23 06:17:09;;;;;;;1.40;1.07;;;;;19.10;95813.00;;;;5072978;28;20230;-57
2023/07/23 06:19:36;;;;;;;0.87;0.87;;;;;19.10;95810.00;;;;5074015;28;20651;-57
2023/07/23 06:22:04;;;;;;;1.33;1.30;;;;;19.00;95807.00;;;;5073403;28;20690;-58
2023/07/23 06:24:32;;;;;;;0.67;0.67;;;;;19.10;95809.00;;;;5056154;28;20668;-58
2023/07/23 06:26:59;;;;;;;0.60;0.60;;;;;19.20;95819.00;;;;5073404;28;20294;-58
2023/07/23 06:29:27;;;;;;;0.50;0.50;;;;;19.30;95814.00;;;;5073982;28;20195;-57
2023/07/23 06:31:54;;;;;;;0.70;0.70;;;;;19.30;95818.00;;;;5055387;28;20227;-57
2023/07/23 06:34:23;;;;;;;0.57;0.57;;;;;19.50;95807.00;;;;5073271;28;20200;-58
2023/07/23 06:36:50;;;;;;;0.60;0.60;;;;;19.50;95818.00;;;;5072957;28;20218;-57
2023/07/23 06:39:19;;;;;;;0.70;0.70;;;;;19.50;95810.00;;;;5072997;28;20191;-56
2023/07/23 06:41:46;;;;;;;1.13;1.10;;;;;19.40;95816.00;;;;5072888;28;20222;-56
2023/07/23 06:44:13;;;;;;;0.60;0.60;;;;;19.60;95814.00;;;;5073242;28;20188;-57
2023/07/23 06:46:41;;;;;;;1.23;0.70;;;;;19.90;95813.00;;;;5073185;28;20194;-57
2023/07/23 06:49:08;;;;;;;0.57;0.57;;;;;19.80;95812.00;;;;5072889;28;20195;-57
2023/07/23 06:51:37;;;;;;;0.60;0.60;;;;;19.70;95801.00;;;;5072754;28;20211;-56
2023/07/23 06:54:04;;;;;;;0.50;0.50;;;;;20.00;95814.00;;;;5073112;28;20203;-57
2023/07/23 06:56:32;;;;;;;1.50;1.40;;;;;20.10;95805.00;;;;5072756;28;20219;-57
2023/07/23 06:59:00;;;;;;;0.70;0.70;;;;;20.40;95811.00;;;;5073033;28;20303;-57
2023/07/23 07:01:27;;;;;;;0.50;0.50;;;;;20.60;95799.00;;;;5073430;28;20265;-57
2023/07/23 07:03:56;;;;;;;0.63;0.63;;;;;20.80;95801.00;;;;5072728;28;20196;-56
2023/07/23 07:06:23;;;;;;;0.50;0.50;;;;;20.50;95806.00;;;;5072644;28;20241;-56
2023/07/23 07:08:52;;;;;;;0.80;0.80;;;;;20.60;95802.00;;;;5072900;28;20247;-56
2023/07/23 07:11:20;;;;;;;1.03;1.03;;;;;20.70;95802.00;;;;5072883;28;20219;-57
2023/07/23 07:13:47;;;;;;;0.77;0.77;;;;;20.80;95784.00;;;;5072847;28;20530;-57
2023/07/23 07:16:16;;;;;;;0.60;0.60;;;;;20.80;95810.00;;;;5072595;28;20219;-56
2023/07/23 07:18:43;;;;;;;0.60;0.60;;;;;21.10;95795.00;;;;5072557;28;20199;-56
2023/07/23 07:21:11;;;;;;;1.02;1.02;;;;;21.10;95817.00;;;;5072435;28;20212;-56
2023/07/23 07:23:38;;;;;;;0.60;0.60;;;;;21.00;95814.00;;;;5072738;28;20653;-57
2023/07/23 07:26:07;;;;;;;0.60;0.60;;;;;20.80;95824.00;;;;5072630;28;20187;-57
2023/07/23 07:28:34;;;;;;;0.63;0.63;;;;;20.60;95819.00;;;;5076489;28;20192;-57
2023/07/23 07:31:04;;;;;;;0.73;0.73;;;;;20.30;95821.00;;;;5076234;28;20253;-57
2023/07/23 07:33:32;;;;;;;1.03;1.03;;;;;20.30;95827.00;;;;5076342;28;20236;-56
2023/07/23 07:36:01;;;;;;;0.50;0.50;;;;;20.30;95805.00;;;;5076542;28;20318;-57
2023/07/23 07:38:29;;;;;;;0.67;0.67;;;;;20.50;95819.00;;;;5076797;28;20194;-57
2023/07/23 07:40:57;;;;;;;0.83;0.83;;;;;20.50;95811.00;;;;5076468;28;20195;-57
2023/07/23 07:43:26;;;;;;;0.63;0.63;;;;;20.70;95805.00;;;;5076748;28;20242;-57
2023/07/23 07:45:59;;;;;;;0.90;0.90;;;;;20.70;95813.00;;;;5076159;28;20207;-57
2023/07/23 07:48:26;;;;;;;0.80;0.80;;;;;21.00;95798.00;;;;5058183;28;20192;-57
2023/07/23 07:51:01;;;;;;;0.90;0.90;;;;;21.20;95809.00;;;;5076416;28;20195;-58
2023/07/23 07:53:29;;;;;;;0.77;0.77;;;;;21.00;95809.00;;;;5076062;28;20187;-57
2023/07/23 07:55:57;;;;;;;0.70;0.70;;;;;20.70;95818.00;;;;5076148;28;20230;-57
2023/07/23 07:58:27;;;;;;;0.73;0.73;;;;;20.60;95815.00;;;;5075956;28;20195;-58
2023/07/23 08:00:55;;;;;;;0.77;0.77;;;;;20.50;95811.00;;;;5076151;28;20199;-57
2023/07/23 08:03:26;;;;;;;1.20;0.93;;;;;20.70;95834.00;;;;5075858;28;20188;-57
2023/07/23 08:05:55;;;;;;;0.63;0.63;;;;;20.70;95826.00;;;;5076020;28;20187;-56
2023/07/23 08:08:26;;;;;;;1.00;1.00;;;;;20.60;95819.00;;;;5075941;28;20294;-58
2023/07/23 08:10:55;;;;;;;0.50;0.50;;;;;20.70;95827.00;;;;5075713;28;20210;-57
2023/07/23 08:13:23;;;;;;;0.70;0.70;;;;;20.70;95836.00;;;;5075914;28;20603;-58
2023/07/23 08:15:52;;;;;;;0.60;0.60;;;;;20.80;95844.00;;;;5075468;28;20200;-58
2023/07/23 08:18:20;;;;;;;1.30;0.97;;;;;21.00;95850.00;;;;5075753;28;20192;-57
2023/07/23 08:20:48;;;;;;;1.33;1.23;;;;;20.70;95843.00;;;;5075580;28;20542;-57
2023/07/23 08:23:16;;;;;;;0.40;0.40;;;;;20.90;95829.00;;;;5075455;28;20198;-57
2023/07/23 08:25:48;;;;;;;0.93;0.93;;;;;20.80;95827.00;;;;5075394;28;20195;-58
2023/07/23 08:28:22;;;;;;;1.30;1.20;;;;;20.60;95826.00;;;;5075742;28;20612;-57
2023/07/23 08:30:51;;;;;;;0.57;0.57;;;;;20.80;95820.00;;;;5075803;28;20196;-58
2023/07/23 08:33:19;;;;;;;0.50;0.50;;;;;21.10;95826.00;;;;5075240;28;20240;-58
2023/07/23 08:35:47;;;;;;;0.70;0.70;;;;;21.00;95820.00;;;;5075100;28;20680;-57
2023/07/23 08:38:15;;;;;;;3.40;0.63;;;;;21.20;95830.00;;;;5074003;28;20200;-57
2023/07/23 08:40:44;;;;;;;1.05;0.95;;;;;21.30;95821.00;;;;5075113;28;20733;-57
2023/07/23 08:43:49;;;;;;;1.10;0.98;;;;;21.20;95824.00;;;;5075179;28;20192;-57
2023/07/23 08:46:26;;;;;;;0.60;0.60;;;;;21.10;95822.00;;;;5072198;28;20573;-57
2023/07/23 08:49:12;;;;;;;0.60;0.60;;;;;21.00;95823.00;;;;5075521;28;20186;-57
2023/07/23 08:51:43;;;;;;;0.65;0.50;;;;;21.00;95820.00;;;;5074875;28;20212;-57
2023/07/23 08:54:11;;;;;;;0.73;0.73;;;;;20.80;95824.00;;;;5075215;28;20263;-57
2023/07/23 08:56:41;;;;;;;0.90;0.88;;;;;20.90;95830.00;;;;5074865;28;20211;-57
2023/07/23 08:59:09;;;;;;;1.08;1.05;;;;;20.90;95834.00;;;;5075036;28;20196;-56
2023/07/23 09:01:40;;;;;;;1.00;1.00;;;;;20.70;95824.00;;;;5074882;28;20214;-57
2023/07/23 09:04:10;;;;;;;0.80;0.80;;;;;20.80;95815.00;;;;5075355;28;20191;-58
2023/07/23 09:06:38;;;;;;;0.70;0.70;;;;;20.70;95837.00;;;;5074828;28;20662;-57
2023/07/23 09:09:07;;;;;;;0.50;0.50;;;;;20.70;95816.00;;;;5074574;28;20230;-57
2023/07/23 09:11:35;;;;;;;0.40;0.40;;;;;20.90;95821.00;;;;5074611;28;20211;-57
2023/07/23 09:14:09;;;;;;;1.13;1.13;;;;;21.00;95821.00;;;;5074618;28;20278;-57
2023/07/23 09:16:40;;;;;;;0.60;0.60;;;;;21.20;95814.00;;;;5074784;28;20673;-57
2023/07/23 09:19:09;;;;;;;0.57;0.57;;;;;21.30;95821.00;;;;5074469;28;20179;-58
2023/07/23 09:21:39;;;;;;;1.38;1.15;;;;;21.70;95803.00;;;;5074533;28;20216;-57
2023/07/23 09:24:09;;;;;;;0.88;0.88;;;;;21.70;95828.00;;;;5074707;28;20205;-57
2023/07/23 09:26:38;;;;;;;0.70;0.70;;;;;21.70;95825.00;;;;5074325;28;20595;-57
2023/07/23 09:29:09;;;;;;;0.60;0.60;;;;;21.50;95818.00;;;;5075130;28;20192;-56
2023/07/23 09:31:42;;;;;;;0.70;0.70;;;;;21.60;95808.00;;;;5056239;28;20230;-56
2023/07/23 09:34:10;;;;;;;0.60;0.60;;;;;21.90;95814.00;;;;5074257;28;20190;-57
2023/07/23 09:36:37;;;;;;;0.85;0.85;;;;;21.70;95807.00;;;;5074045;28;20218;-57
2023/07/23 09:39:06;;;;;;;0.82;0.82;;;;;21.90;95811.00;;;;5056179;28;20209;-57
2023/07/23 09:41:35;;;;;;;5.35;1.00;;;;;21.90;95801.00;;;;5074172;28;20212;-58
2023/07/23 09:44:06;;;;;;;0.70;0.70;;;;;22.10;95796.00;;;;5073927;28;20199;-57
2023/07/23 09:46:33;;;;;;;0.98;0.93;;;;;22.10;95822.00;;;;5074178;28;20179;-57
2023/07/23 09:49:02;;;;;;;0.50;0.50;;;;;22.00;95799.00;;;;5074151;28;20203;-57
2023/07/23 09:51:32;;;;;;;0.63;0.63;;;;;21.90;95812.00;;;;5073692;28;20207;-57
2023/07/23 09:54:01;;;;;;;0.80;0.80;;;;;21.80;95805.00;;;;5073833;28;20196;-57
2023/07/23 09:56:29;;;;;;;1.05;1.05;;;;;22.30;95808.00;;;;5055668;28;20245;-57
2023/07/23 09:58:59;;;;;;;0.60;0.60;;;;;22.10;95794.00;;;;5073565;28;20297;-57
2023/07/23 10:01:27;;;;;;;0.50;0.50;;;;;22.30;95789.00;;;;5073638;28;20247;-57
2023/07/23 10:03:55;;;;;;;0.68;0.68;;;;;22.30;95786.00;;;;5073388;28;20195;-57
2023/07/23 10:06:24;;;;;;;0.70;0.70;;;;;22.60;95786.00;;;;5073509;28;20199;-57
2023/07/23 10:08:52;;;;;;;1.70;1.13;;;;;22.70;95786.00;;;;5073443;28;20269;-57
2023/07/23 10:11:20;;;;;;;0.75;0.70;;;;;22.90;95780.00;;;;5073505;28;20261;-57
2023/07/23 10:13:48;;;;;;;0.55;0.55;;;;;23.00;95775.00;;;;5073483;28;20191;-57
2023/07/23 10:16:22;;;;;;;0.80;0.80;;;;;22.80;95774.00;;;;5073224;28;20199;-57
2023/07/23 10:18:51;;;;;;;0.60;0.60;;;;;22.90;95778.00;;;;5073246;28;20188;-57
2023/07/23 10:21:19;;;;;;;0.80;0.80;;;;;23.00;95789.00;;;;5073179;28;20266;-56
2023/07/23 10:23:56;;;;;;;1.02;1.02;;;;;23.10;95772.00;;;;5073460;28;20195;-57
2023/07/23 10:26:25;;;;;;;0.52;0.52;;;;;22.90;95789.00;;;;5073544;28;20237;-57
2023/07/23 10:28:58;;;;;;;1.00;1.00;;;;;23.40;95770.00;;;;5073896;28;20199;-57
2023/07/23 10:31:27;;;;;;;0.43;0.43;;;;;23.40;95782.00;;;;5073306;28;20219;-57
2023/07/23 10:33:55;;;;;;;0.60;0.60;;;;;23.40;95763.00;;;;5055075;28;20242;-57
2023/07/23 10:36:23;;;;;;;0.68;0.68;;;;;23.60;95763.00;;;;5055250;28;20226;-58
2023/07/23 10:39:17;;;;;;;0.40;0.40;;;;;24.40;95738.00;;;;5072894;28;20199;-57
2023/07/23 10:41:49;;;;;;;0.60;0.60;;;;;24.50;95747.00;;;;5073228;28;20222;-57
2023/07/23 10:44:25;;;;;;;0.82;0.82;;;;;24.90;95748.00;;;;5072902;28;20198;-57
2023/07/23 10:46:53;;;;;;;0.65;0.65;;;;;24.50;95756.00;;;;5072830;28;20218;-57
2023/07/23 10:49:22;;;;;;;0.60;0.60;;;;;24.20;95761.00;;;;5072824;28;20195;-57
2023/07/23 10:51:51;;;;;;;0.95;0.90;;;;;24.30;95751.00;;;;5072801;28;20268;-57
2023/07/23 10:54:22;;;;;;;0.75;0.75;;;;;24.90;95763.00;;;;5072761;28;20191;-57
2023/07/23 10:56:50;;;;;;;0.90;0.90;;;;;25.10;95765.00;;;;5072709;28;20179;-57
2023/07/23 10:59:21;;;;;;;0.90;0.73;;;;;24.20;95741.00;;;;5073206;28;20555;-56
2023/07/23 11:01:51;;;;;;;0.80;0.80;;;;;24.80;95746.00;;;;5054174;28;20219;-56
2023/07/23 11:04:24;;;;;;;1.40;1.27;;;;;24.70;95735.00;;;;5054750;28;20183;-57
2023/07/23 11:06:57;;;;;;;1.02;1.02;;;;;24.60;95751.00;;;;5072944;28;20186;-57
2023/07/23 11:09:30;;;;;;;0.80;0.80;;;;;24.50;95741.00;;;;5072582;28;20217;-57
2023/07/23 11:11:59;;;;;;;1.20;1.17;;;;;24.80;95734.00;;;;5072815;28;20602;-55
2023/07/23 11:14:27;;;;;;;0.77;0.77;;;;;24.60;95740.00;;;;5072975;28;20195;-57
2023/07/23 11:16:56;;;;;;;0.75;0.75;;;;;24.90;95750.00;;;;5072508;28;20199;-56
2023/07/23 11:19:25;;;;;;;1.98;0.68;;;;;24.60;95738.00;;;;5072765;28;20554;-56
2023/07/23 11:21:55;;;;;;;0.75;0.75;;;;;25.10;95725.00;;;;5072202;28;20222;-56
2023/07/23 11:24:24;;;;;;;0.68;0.68;;;;;24.80;95738.00;;;;5072912;28;20190;-57
2023/07/23 11:26:53;;;;;;;0.80;0.80;;;;;24.50;95744.00;;;;5072408;28;20194;-57
2023/07/23 11:29:24;;;;;;;0.60;0.60;;;;;25.10;95732.00;;;;5072564;28;20202;-57
2023/07/23 11:31:52;;;;;;;0.50;0.50;;;;;24.70;95729.00;;;;5072561;28;20223;-58
2023/07/23 11:34:19;;;;;;;0.55;0.55;;;;;24.90;95731.00;;;;5072408;28;20678;-58
2023/07/23 11:36:52;;;;;;;0.52;0.52;;;;;24.60;95775.00;;;;5072505;28;20241;-57
2023/07/23 11:39:19;;;;;;;0.65;0.65;;;;;24.60;95745.00;;;;5072390;28;20278;-56
2023/07/23 11:41:46;;;;;;;0.88;0.88;;;;;24.40;95736.00;;;;5072296;28;20690;-57
2023/07/23 11:44:15;;;;;;;0.60;0.60;;;;;24.30;95755.00;;;;5072289;28;20188;-57
2023/07/23 11:46:43;;;;;;;1.25;1.15;;;;;24.30;95742.00;;;;5072270;28;20206;-57
2023/07/23 11:49:12;;;;;;;0.63;0.63;;;;;24.20;95768.00;;;;5072280;28;20188;-57
2023/07/23 11:51:40;;;;;;;0.50;0.50;;;;;23.90;95770.00;;;;5072978;28;20561;-57
2023/07/23 11:54:09;;;;;;;0.50;0.50;;;;;23.90;95780.00;;;;5072866;28;20552;-57
2023/07/23 11:56:38;;;;;;;0.60;0.60;;;;;23.70;95746.00;;;;5054186;28;20195;-56
2023/07/23 11:59:07;;;;;;;3.20;1.25;;;;;23.90;95755.00;;;;5072138;28;20261;-57
2023/07/23 12:01:39;;;;;;;0.60;0.60;;;;;23.70;95770.00;;;;5072049;28;20253;-57
2023/07/23 12:04:07;;;;;;;0.77;0.77;;;;;23.70;95760.00;;;;5072418;28;20191;-56
2023/07/23 12:06:37;;;;;;;0.60;0.60;;;;;23.50;95758.00;;;;5072609;28;20243;-56
2023/07/23 12:09:08;;;;;;;0.70;0.70;;;;;23.70;95740.00;;;;5072238;28;20187;-56
2023/07/23 12:11:39;;;;;;;2.17;1.08;;;;;23.90;95736.00;;;;5072057;28;20219;-56
2023/07/23 12:14:08;;;;;;;0.50;0.50;;;;;23.70;95728.00;;;;5075450;28;20197;-56
2023/07/23 12:16:39;;;;;;;0.75;0.75;;;;;23.80;95751.00;;;;5075642;28;20277;-57
2023/07/23 12:19:08;;;;;;;1.23;0.90;;;;;23.80;95744.00;;;;5075774;28;20204;-57
2023/07/23 12:21:37;;;;;;;0.52;0.52;;;;;24.00;95735.00;;;;5075458;28;20226;-56
2023/07/23 12:24:15;;;;;;;3.28;0.98;;;;;23.70;95729.00;;;;5075455;28;20661;-56
2023/07/23 12:26:43;;;;;;;0.60;0.60;;;;;23.90;95742.00;;;;5075423;28;20195;-56